Time;durP1;ratioP1;P1;durP2;ratioP2;P2;SDS_P1;SDS_P2;PMS_P1;PMS_P2;Temp;Humidity;BMP_temperature;BMP_pressure;BME280_temperature;BME280_humidity;BME280_pressure;Samples;Min_cycle;Max_cycle;Signal;HPM_P1;HPM_P2
2021/08/16 00:00:53;;;;;;;14.15;4.05;;;;;;;19.83;58.28;100899.84;5034171;28;20045;-59
2021/08/16 00:03:20;;;;;;;13.25;4.00;;;;;;;19.83;58.22;100901.81;5032747;28;20045;-59
2021/08/16 00:05:48;;;;;;;8.90;2.72;;;;;;;19.82;59.91;100897.41;5033758;28;20041;-60
2021/08/16 00:08:16;;;;;;;11.90;3.50;;;;;;;19.96;59.32;100896.09;5033772;28;20049;-54
2021/08/16 00:10:43;;;;;;;13.52;3.85;;;;;;;19.81;58.02;100898.53;5034143;28;20130;-59
2021/08/16 00:13:11;;;;;;;11.00;3.50;;;;;;;19.77;59.23;100885.38;5033797;28;20365;-57
2021/08/16 00:15:39;;;;;;;13.93;3.90;;;;;;;19.77;58.49;100887.31;5033922;28;20070;-53
2021/08/16 00:18:06;;;;;;;11.02;3.58;;;;;;;19.73;58.53;100883.59;5033337;28;20045;-59
2021/08/16 00:20:34;;;;;;;15.68;4.63;;;;;;;19.78;58.44;100883.44;5033283;28;20038;-59
2021/08/16 00:23:02;;;;;;;17.30;4.22;;;;;;;19.75;59.02;100875.81;5033699;28;20038;-55
2021/08/16 00:25:29;;;;;;;12.90;3.78;;;;;;;19.72;58.90;100881.97;5033691;28;20046;-57
2021/08/16 00:27:57;;;;;;;12.63;3.85;;;;;;;19.70;58.79;100878.72;5033703;28;20045;-57
2021/08/16 00:30:25;;;;;;;15.93;4.10;;;;;;;19.69;58.82;100874.34;5033448;28;20046;-57
2021/08/16 00:32:52;;;;;;;9.73;3.00;;;;;;;19.65;59.35;100881.63;5039698;28;20037;-57
2021/08/16 00:35:20;;;;;;;13.43;3.78;;;;;;;19.67;59.16;100882.13;5040447;28;20054;-60
2021/08/16 00:37:47;;;;;;;14.43;3.95;;;;;;;19.58;59.15;100882.94;5033137;28;20415;-57
2021/08/16 00:40:17;;;;;;;10.27;3.40;;;;;;;19.67;60.73;100880.16;5033618;28;20049;-54
2021/08/16 00:42:44;;;;;;;16.77;4.68;;;;;;;19.83;58.76;100877.72;5033048;28;20038;-60
2021/08/16 00:45:12;;;;;;;13.02;3.70;;;;;;;19.68;58.89;100890.13;5033376;28;20050;-55
2021/08/16 00:47:40;;;;;;;16.20;4.70;;;;;;;19.56;58.76;100878.88;5032843;28;20037;-56
2021/08/16 00:50:10;;;;;;;18.02;4.07;;;;;;;19.47;59.27;100887.19;5032728;28;20512;-60
2021/08/16 00:52:39;;;;;;;16.40;4.70;;;;;;;19.42;59.34;100879.06;5033150;28;20095;-60
2021/08/16 00:55:09;;;;;;;16.42;4.35;;;;;;;19.40;59.63;100881.34;5034840;28;20041;-58
2021/08/16 00:57:38;;;;;;;12.05;3.97;;;;;;;19.36;59.84;100874.81;5039174;28;20049;-64
2021/08/16 01:00:10;;;;;;;14.43;3.97;;;;;;;19.39;60.07;100879.72;5044413;28;20044;-58
2021/08/16 01:02:42;;;;;;;14.85;4.40;;;;;;;19.36;60.08;100881.19;5045922;28;20404;-59
2021/08/16 01:05:12;;;;;;;8.55;3.00;;;;;;;19.39;61.53;100892.72;5037723;28;20049;-57
2021/08/16 01:07:42;;;;;;;9.13;3.17;;;;;;;19.35;60.80;100887.03;5034714;28;20053;-59
2021/08/16 01:10:10;;;;;;;12.88;4.15;;;;;;;19.24;62.28;100871.91;5032927;28;20036;-59
2021/08/16 01:12:38;;;;;;;13.10;3.58;;;;;;;19.30;61.95;100881.66;5032881;28;20046;-59
2021/08/16 01:15:08;;;;;;;17.27;4.97;;;;;;;19.30;60.67;100878.91;5032555;28;20419;-58
2021/08/16 01:17:36;;;;;;;14.38;4.30;;;;;;;19.25;61.13;100881.84;5032274;28;20061;-60
2021/08/16 01:20:08;;;;;;;15.05;3.58;;;;;;;19.40;62.45;100883.28;5046512;28;20111;-60
2021/08/16 01:22:36;;;;;;;17.88;5.10;;;;;;;19.27;60.84;100883.13;5032726;28;20040;-55
2021/08/16 01:25:06;;;;;;;12.63;3.40;;;;;;;19.26;61.51;100884.25;5032769;28;20045;-59
2021/08/16 01:27:34;;;;;;;15.80;4.55;;;;;;;19.25;61.28;100884.59;5032427;28;20038;-57
2021/08/16 01:30:04;;;;;;;13.90;4.40;;;;;;;19.20;61.08;100882.00;5032379;28;20053;-57
2021/08/16 01:32:32;;;;;;;15.55;4.57;;;;;;;19.20;61.52;100887.53;5031887;28;20034;-57
2021/08/16 01:34:59;;;;;;;16.75;4.55;;;;;;;19.31;61.92;100877.75;5032468;28;20121;-59
2021/08/16 01:37:27;;;;;;;19.85;4.90;;;;;;;19.30;61.21;100873.38;5032598;28;20559;-58
2021/08/16 01:39:54;;;;;;;13.20;4.35;;;;;;;19.30;61.40;100876.94;5032336;28;20050;-60
2021/08/16 01:42:22;;;;;;;10.77;3.38;;;;;;;19.37;62.02;100873.72;5031984;28;20042;-59
2021/08/16 01:44:50;;;;;;;14.00;4.03;;;;;;;19.31;61.50;100877.75;5031982;28;20057;-59
2021/08/16 01:47:17;;;;;;;13.95;4.10;;;;;;;19.25;61.65;100873.56;5031712;28;20503;-54
2021/08/16 01:49:46;;;;;;;13.57;4.10;;;;;;;19.18;61.87;100874.03;5044607;28;20056;-59
2021/08/16 01:52:13;;;;;;;13.18;4.20;;;;;;;19.19;62.02;100872.06;5033610;28;20052;-59
2021/08/16 01:54:41;;;;;;;13.30;4.03;;;;;;;19.22;63.34;100868.66;5030966;28;20044;-59
2021/08/16 01:57:09;;;;;;;10.63;3.30;;;;;;;19.19;62.44;100864.59;5031911;28;20048;-57
2021/08/16 01:59:36;;;;;;;11.07;3.58;;;;;;;19.23;62.80;100873.06;5031275;28;20046;-58
2021/08/16 02:02:04;;;;;;;17.20;4.40;;;;;;;19.27;62.56;100866.56;5031505;28;20488;-59
2021/08/16 02:04:32;;;;;;;12.80;4.10;;;;;;;19.16;62.53;100855.00;5031959;28;20492;-58
2021/08/16 02:07:02;;;;;;;12.75;3.90;;;;;;;19.13;62.48;100858.44;5032016;28;20037;-59
2021/08/16 02:09:30;;;;;;;14.90;4.75;;;;;;;19.05;62.48;100862.03;5031909;28;20038;-59
2021/08/16 02:11:57;;;;;;;14.23;4.10;;;;;;;19.22;63.11;100863.13;5031925;28;20045;-57
2021/08/16 02:14:25;;;;;;;12.60;3.50;;;;;;;19.19;63.48;100855.50;5031824;28;20042;-60
2021/08/16 02:16:52;;;;;;;15.95;4.57;;;;;;;19.14;62.87;100860.03;5031890;28;20037;-59
2021/08/16 02:19:20;;;;;;;13.48;4.00;;;;;;;19.08;63.17;100853.06;5032027;28;20140;-59
2021/08/16 02:21:48;;;;;;;14.32;3.92;;;;;;;19.08;63.59;100853.06;5032248;28;20040;-60
2021/08/16 02:24:16;;;;;;;15.40;3.97;;;;;;;19.13;63.56;100850.16;5031975;28;20049;-58
2021/08/16 02:26:44;;;;;;;15.75;4.35;;;;;;;19.12;63.32;100848.53;5031670;28;20041;-58
2021/08/16 02:29:14;;;;;;;12.98;4.03;;;;;;;19.12;63.40;100854.06;5031366;28;20455;-58
2021/08/16 02:31:42;;;;;;;11.48;3.25;;;;;;;19.02;63.37;100856.31;5031426;28;20047;-55
2021/08/16 02:34:09;;;;;;;17.17;4.32;;;;;;;18.97;63.34;100853.72;5031728;28;20041;-58
2021/08/16 02:36:37;;;;;;;10.68;3.53;;;;;;;18.99;63.54;100845.94;5030379;28;20121;-58
2021/08/16 02:39:05;;;;;;;13.82;4.20;;;;;;;19.09;63.64;100849.16;5030705;28;20065;-56
2021/08/16 02:41:32;;;;;;;10.35;3.25;;;;;;;19.04;64.17;100857.63;5031287;28;20523;-59
2021/08/16 02:44:00;;;;;;;11.55;3.90;;;;;;;18.99;64.22;100849.50;5031654;28;20046;-60
2021/08/16 02:46:29;;;;;;;11.30;3.42;;;;;;;18.90;63.77;100843.16;5031463;28;20053;-59
2021/08/16 02:48:56;;;;;;;12.60;3.65;;;;;;;18.96;64.00;100849.34;5031730;28;20037;-60
2021/08/16 02:51:26;;;;;;;16.30;4.50;;;;;;;18.96;63.69;100850.16;5031732;28;20369;-59
2021/08/16 02:53:56;;;;;;;16.33;4.85;;;;;;;18.95;63.70;100840.22;5031845;28;20049;-59
2021/08/16 02:56:24;;;;;;;17.88;4.82;;;;;;;19.07;63.45;100845.09;5031592;28;20037;-60
2021/08/16 02:58:52;;;;;;;15.50;3.83;;;;;;;19.02;63.64;100840.56;5031266;28;20036;-60
2021/08/16 03:01:19;;;;;;;13.73;4.70;;;;;;;19.04;63.54;100838.28;5031247;28;20042;-56
2021/08/16 03:03:47;;;;;;;13.15;4.22;;;;;;;19.00;63.53;100839.25;5031500;28;20033;-59
2021/08/16 03:06:14;;;;;;;19.90;5.22;;;;;;;18.98;63.41;100836.84;5031514;28;20476;-57
2021/08/16 03:08:42;;;;;;;19.05;5.00;;;;;;;18.91;63.93;100828.22;5031603;28;20041;-58
2021/08/16 03:11:10;;;;;;;11.23;3.75;;;;;;;18.82;64.18;100832.91;5032023;28;20043;-58
2021/08/16 03:13:37;;;;;;;10.40;2.97;;;;;;;18.83;65.78;100831.78;5034382;28;20052;-59
2021/08/16 03:16:05;;;;;;;14.82;4.70;;;;;;;18.82;64.53;100827.41;5035200;28;20480;-59
2021/08/16 03:18:33;;;;;;;17.13;4.25;;;;;;;18.87;64.53;100833.56;5035034;28;20447;-59
2021/08/16 03:21:01;;;;;;;14.18;4.25;;;;;;;18.80;64.57;100840.72;5035107;28;20135;-60
2021/08/16 03:23:28;;;;;;;13.65;4.35;;;;;;;18.71;65.01;100835.97;5034701;28;20045;-59
2021/08/16 03:25:57;;;;;;;14.48;5.10;;;;;;;18.67;65.21;100843.25;5034806;28;20033;-59
2021/08/16 03:28:26;;;;;;;16.55;5.10;;;;;;;18.68;65.20;100842.13;5034087;28;20052;-59
2021/08/16 03:30:54;;;;;;;16.35;5.15;;;;;;;18.70;65.26;100845.38;5034525;28;20041;-58
2021/08/16 03:33:21;;;;;;;16.70;4.95;;;;;;;18.64;65.79;100849.44;5034559;28;20077;-57
2021/08/16 03:35:49;;;;;;;13.10;3.92;;;;;;;18.68;65.70;100844.06;5033295;28;20048;-60
2021/08/16 03:38:17;;;;;;;13.48;4.55;;;;;;;18.66;65.56;100836.09;5034567;28;20030;-59
2021/08/16 03:40:44;;;;;;;14.45;3.97;;;;;;;18.66;65.64;100840.81;5033246;28;20108;-58
2021/08/16 03:43:12;;;;;;;18.75;5.30;;;;;;;18.58;65.95;100842.44;5033693;28;20057;-58
2021/08/16 03:45:39;;;;;;;10.27;3.67;;;;;;;18.62;65.97;100850.91;5034401;28;20141;-59
2021/08/16 03:48:07;;;;;;;11.02;4.35;;;;;;;18.61;66.10;100847.31;5034445;28;20052;-60
2021/08/16 03:50:35;;;;;;;11.38;3.53;;;;;;;18.57;66.24;100838.06;5034546;28;20042;-59
2021/08/16 03:53:04;;;;;;;13.05;4.43;;;;;;;18.59;66.17;100840.47;5034455;28;20046;-57
2021/08/16 03:55:33;;;;;;;16.45;5.10;;;;;;;18.55;66.30;100845.84;5034230;28;20053;-57
2021/08/16 03:58:00;;;;;;;19.00;5.78;;;;;;;18.52;66.32;100836.25;5034093;28;20373;-60
2021/08/16 04:00:28;;;;;;;14.32;5.18;;;;;;;18.51;66.55;100836.56;5033761;28;20057;-59
2021/08/16 04:02:55;;;;;;;14.85;4.85;;;;;;;18.49;66.70;100841.59;5034098;28;20416;-58
2021/08/16 04:05:24;;;;;;;17.23;5.90;;;;;;;18.51;66.68;100840.13;5033975;28;20044;-59
2021/08/16 04:07:51;;;;;;;17.30;5.38;;;;;;;18.48;66.83;100828.94;5034258;28;20113;-59
2021/08/16 04:10:20;;;;;;;17.85;5.65;;;;;;;18.36;67.24;100829.56;5033874;28;20037;-60
2021/08/16 04:12:47;;;;;;;22.88;5.25;;;;;;;18.41;67.38;100826.66;5033724;28;20048;-58
2021/08/16 04:15:17;;;;;;;14.18;5.18;;;;;;;18.46;67.31;100833.97;5033733;28;20046;-59
2021/08/16 04:17:45;;;;;;;13.10;4.65;;;;;;;18.51;67.11;100825.53;5033856;28;20037;-58
2021/08/16 04:20:14;;;;;;;11.07;3.83;;;;;;;18.62;67.29;100829.63;5033482;28;20046;-59
2021/08/16 04:22:43;;;;;;;16.13;5.38;;;;;;;18.63;66.76;100831.22;5033304;28;20060;-59
2021/08/16 04:25:13;;;;;;;20.20;5.82;;;;;;;18.59;66.77;100819.25;5033593;28;20033;-59
2021/08/16 04:27:41;;;;;;;14.73;5.10;;;;;;;18.57;66.95;100831.69;5033319;28;20045;-60
2021/08/16 04:30:11;;;;;;;23.65;7.10;;;;;;;18.46;67.33;100829.25;5033486;28;20155;-55
2021/08/16 04:32:39;;;;;;;15.45;6.00;;;;;;;18.46;67.38;100839.50;5033572;28;20038;-59
2021/08/16 04:35:07;;;;;;;14.90;5.95;;;;;;;18.47;67.52;100832.81;5033724;28;20121;-58
2021/08/16 04:37:37;;;;;;;14.63;5.03;;;;;;;18.49;67.54;100828.59;5032221;28;20128;-58
2021/08/16 04:40:05;;;;;;;16.13;5.78;;;;;;;18.44;67.70;100833.47;5033069;28;20044;-60
2021/08/16 04:42:33;;;;;;;15.13;4.38;;;;;;;18.49;67.78;100838.84;5032997;28;20041;-59
2021/08/16 04:45:02;;;;;;;13.55;4.93;;;;;;;18.51;67.82;100831.84;5033176;28;20057;-58
2021/08/16 04:47:29;;;;;;;15.85;6.63;;;;;;;18.56;67.70;100833.66;5033408;28;20037;-58
2021/08/16 04:49:57;;;;;;;15.65;6.43;;;;;;;18.68;67.12;100833.84;5045916;28;20047;-59
2021/08/16 04:52:25;;;;;;;11.93;4.38;;;;;;;18.66;67.43;100822.31;5033052;28;20419;-58
2021/08/16 04:54:53;;;;;;;14.43;4.88;;;;;;;18.64;67.21;100832.88;5032738;28;20144;-58
2021/08/16 04:57:47;;;;;;;14.77;6.15;;;;;;;18.64;67.61;100821.84;5032909;28;20050;-59
2021/08/16 05:00:18;;;;;;;16.00;5.40;;;;;;;18.61;67.42;100821.66;5031708;28;20063;-59
2021/08/16 05:02:45;;;;;;;14.27;4.75;;;;;;;18.74;66.94;100817.94;5033231;28;20045;-58
2021/08/16 05:05:16;;;;;;;15.90;6.70;;;;;;;18.61;67.16;100816.94;5032792;28;20041;-52
2021/08/16 05:07:52;;;;;;;15.07;5.32;;;;;;;18.53;67.67;100815.00;5032975;28;20060;-58
2021/08/16 05:10:21;;;;;;;17.45;6.18;;;;;;;18.58;67.69;100817.59;5032263;28;20500;-59
2021/08/16 05:12:50;;;;;;;11.93;5.03;;;;;;;18.60;67.59;100815.34;5032784;28;20041;-58
2021/08/16 05:15:18;;;;;;;10.75;4.05;;;;;;;18.61;68.08;100813.38;5032893;28;20049;-59
2021/08/16 05:17:46;;;;;;;13.15;4.93;;;;;;;18.76;67.54;100823.13;5039069;28;20091;-59
2021/08/16 05:20:15;;;;;;;17.58;7.63;;;;;;;18.70;67.34;100809.50;5038934;28;20041;-59
2021/08/16 05:22:44;;;;;;;15.05;5.88;;;;;;;18.73;67.56;100808.84;5032410;28;20036;-59
2021/08/16 05:25:13;;;;;;;21.55;8.80;;;;;;;18.61;67.90;100819.69;5032376;28;20041;-59
2021/08/16 05:27:41;;;;;;;19.20;6.97;;;;;;;18.65;67.83;100806.09;5032525;28;20045;-56
2021/08/16 05:30:09;;;;;;;15.95;6.13;;;;;;;18.58;68.18;100811.28;5032687;28;20049;-59
2021/08/16 05:32:37;;;;;;;19.15;7.45;;;;;;;18.56;68.41;100822.63;5032776;28;20033;-59
2021/08/16 05:35:06;;;;;;;10.63;4.05;;;;;;;18.76;67.95;100812.09;5031797;28;20029;-60
2021/08/16 05:37:34;;;;;;;20.00;7.57;;;;;;;18.85;67.58;100810.19;5032077;28;20093;-57
2021/08/16 05:40:02;;;;;;;19.13;7.82;;;;;;;18.68;67.88;100809.00;5031618;28;20052;-58
2021/08/16 05:42:30;;;;;;;17.67;7.63;;;;;;;18.65;68.18;100809.66;5032283;28;20055;-57
2021/08/16 05:44:58;;;;;;;13.25;4.70;;;;;;;18.70;68.21;100808.69;5032017;28;20045;-57
2021/08/16 05:47:25;;;;;;;20.25;8.57;;;;;;;18.59;68.56;100824.75;5032836;28;20103;-59
2021/08/16 05:49:54;;;;;;;16.35;8.30;;;;;;;18.53;68.81;100826.03;5032052;28;20037;-60
2021/08/16 05:52:21;;;;;;;22.98;9.57;;;;;;;18.59;68.65;100822.00;5031936;28;20830;-60
2021/08/16 05:54:49;;;;;;;24.23;9.35;;;;;;;18.60;68.73;100804.28;5031932;28;20046;-60
2021/08/16 05:57:17;;;;;;;24.52;9.30;;;;;;;18.57;68.89;100804.94;5032251;28;20042;-57
2021/08/16 05:59:48;;;;;;;17.25;7.10;;;;;;;18.49;69.07;100814.00;4819888;28;10001208;-54
2021/08/16 06:02:16;;;;;;;17.90;8.85;;;;;;;18.44;69.40;100820.47;4682606;28;10000186;-59
2021/08/16 06:04:44;;;;;;;19.73;8.07;;;;;;;18.51;69.45;100808.97;5030140;28;20488;-56
2021/08/16 06:07:11;;;;;;;14.38;7.50;;;;;;;18.58;69.14;100811.28;5029663;28;20136;-58
2021/08/16 06:09:39;;;;;;;21.40;8.00;;;;;;;18.57;69.03;100820.66;5029820;28;20050;-55
2021/08/16 06:12:07;;;;;;;17.90;7.32;;;;;;;18.62;69.12;100813.06;5029492;28;20380;-54
2021/08/16 06:14:36;;;;;;;11.63;4.88;;;;;;;18.61;69.09;100822.47;5029812;28;20045;-59
2021/08/16 06:17:04;;;;;;;15.65;7.15;;;;;;;18.77;68.68;100813.75;5029616;28;20408;-57
2021/08/16 06:19:33;;;;;;;13.48;6.22;;;;;;;18.58;69.36;100820.34;5029893;28;20049;-58
2021/08/16 06:22:02;;;;;;;18.90;8.38;;;;;;;18.61;69.40;100822.47;5029409;28;20042;-58
2021/08/16 06:24:30;;;;;;;16.10;5.78;;;;;;;18.57;69.45;100815.97;5029676;28;20056;-58
2021/08/16 06:26:58;;;;;;;13.68;5.35;;;;;;;18.64;69.36;100821.84;5029847;28;20037;-55
2021/08/16 06:29:25;;;;;;;15.15;6.72;;;;;;;18.66;69.07;100819.53;5029167;28;20668;-52
2021/08/16 06:31:53;;;;;;;14.98;6.70;;;;;;;18.66;69.19;100827.00;5026158;28;20046;-56
2021/08/16 06:34:22;;;;;;;15.20;6.35;;;;;;;18.70;69.11;100826.06;5029348;28;20128;-55
2021/08/16 06:36:55;;;;;;;17.35;6.82;;;;;;;18.73;69.29;100819.88;5028385;28;20099;-58
2021/08/16 06:39:24;;;;;;;12.32;5.38;;;;;;;18.69;69.17;100831.91;5043705;28;20123;-55
2021/08/16 06:41:55;;;;;;;17.33;9.43;;;;;;;18.80;68.72;100821.38;5031678;28;20053;-57
2021/08/16 06:44:25;;;;;;;16.23;8.90;;;;;;;18.68;69.35;100825.56;5031516;28;20041;-57
2021/08/16 06:46:53;;;;;;;18.90;9.68;;;;;;;18.61;69.58;100829.94;5034356;28;20098;-57
2021/08/16 06:49:21;;;;;;;18.35;8.63;;;;;;;18.57;69.80;100826.19;5035412;28;20419;-56
2021/08/16 06:51:49;;;;;;;15.40;6.10;;;;;;;18.55;69.77;100834.81;5033584;28;20041;-57
2021/08/16 06:54:16;;;;;;;15.73;7.80;;;;;;;18.48;70.28;100832.50;5035375;28;20053;-57
2021/08/16 06:57:00;;;;;;;16.95;9.68;;;;;;;18.41;70.78;100837.69;5035068;28;20045;-57
2021/08/16 06:59:33;;;;;;;16.33;7.80;;;;;;;18.42;70.87;100833.78;5045215;28;20064;-60
2021/08/16 07:02:02;;;;;;;20.40;10.05;;;;;;;18.36;71.85;100829.56;5036413;28;20049;-58
2021/08/16 07:04:30;;;;;;;16.95;8.38;;;;;;;18.43;71.49;100842.91;5034694;28;20041;-59
2021/08/16 07:06:58;;;;;;;18.48;10.13;;;;;;;18.39;71.58;100830.88;5034299;28;20404;-58
2021/08/16 07:09:25;;;;;;;22.27;11.95;;;;;;;18.42;72.32;100831.03;5040531;28;20045;-54
2021/08/16 07:11:55;;;;;;;14.90;7.07;;;;;;;18.56;71.71;100839.19;5051179;28;20045;-51
2021/08/16 07:14:23;;;;;;;19.25;11.18;;;;;;;18.44;73.27;100830.72;5050616;28;20044;-53
2021/08/16 07:16:51;;;;;;;22.40;11.15;;;;;;;18.50;73.37;100827.50;5051984;28;20037;-52
2021/08/16 07:19:18;;;;;;;15.27;7.25;;;;;;;18.59;72.20;100827.50;5048939;28;20041;-55
2021/08/16 07:21:46;;;;;;;17.73;9.27;;;;;;;18.48;73.62;100834.47;5051257;28;20047;-55
2021/08/16 07:24:15;;;;;;;18.25;9.35;;;;;;;18.51;73.29;100831.06;5047755;28;20124;-53
2021/08/16 07:26:42;;;;;;;18.40;9.40;;;;;;;18.72;71.04;100823.78;5052100;28;20049;-57
2021/08/16 07:29:10;;;;;;;16.20;8.10;;;;;;;18.62;72.76;100824.09;5036025;28;20041;-56
2021/08/16 07:31:38;;;;;;;16.75;9.55;;;;;;;18.59;73.45;100830.28;5051196;28;20045;-55
2021/08/16 07:34:05;;;;;;;18.05;8.07;;;;;;;18.52;73.49;100827.97;5039830;28;20045;-59
2021/08/16 07:36:34;;;;;;;21.27;8.95;;;;;;;18.49;73.72;100828.59;5034101;28;20052;-59
2021/08/16 07:39:01;;;;;;;20.08;8.90;;;;;;;18.47;73.93;100832.81;5034685;28;20050;-58
2021/08/16 07:41:29;;;;;;;17.88;8.60;;;;;;;18.37;74.59;100830.38;5033914;28;20053;-58
2021/08/16 07:43:56;;;;;;;21.95;8.10;;;;;;;18.36;74.62;100831.50;5033948;28;20511;-59
2021/08/16 07:46:24;;;;;;;21.60;10.15;;;;;;;18.51;74.13;100844.84;5034409;28;20140;-61
2021/08/16 07:48:52;;;;;;;18.67;8.90;;;;;;;18.45;75.26;100859.94;5034235;28;20440;-60
2021/08/16 07:51:19;;;;;;;17.65;6.90;;;;;;;18.39;75.49;100867.53;5034080;28;20042;-60
2021/08/16 07:53:47;;;;;;;16.75;9.65;;;;;;;18.27;76.51;100868.13;5033998;28;20030;-61
2021/08/16 07:56:15;;;;;;;15.80;9.13;;;;;;;18.01;78.05;100862.50;5034349;28;20087;-57
2021/08/16 07:58:42;;;;;;;9.07;5.47;;;;;;;17.84;77.39;100859.69;5033067;28;20037;-59
2021/08/16 08:01:10;;;;;;;11.25;5.65;;;;;;;17.71;78.08;100875.16;5033306;28;20068;-61
2021/08/16 08:03:37;;;;;;;6.95;4.28;;;;;;;17.69;78.32;100874.63;5033286;28;20099;-60
2021/08/16 08:06:06;;;;;;;9.50;4.40;;;;;;;17.71;78.44;100863.31;5034093;28;20046;-57
2021/08/16 08:08:35;;;;;;;8.60;4.40;;;;;;;17.76;79.11;100858.47;5033668;28;20056;-59
2021/08/16 08:11:03;;;;;;;10.48;4.38;;;;;;;17.80;79.17;100862.25;5033697;28;20053;-59
2021/08/16 08:13:31;;;;;;;7.72;4.57;;;;;;;17.86;78.97;100858.22;5033593;28;20042;-57
2021/08/16 08:15:58;;;;;;;10.25;5.00;;;;;;;17.82;79.53;100868.28;5033699;28;20037;-59
2021/08/16 08:18:26;;;;;;;8.95;5.22;;;;;;;17.80;79.87;100873.28;5033325;28;20049;-59
2021/08/16 08:20:53;;;;;;;11.82;5.45;;;;;;;17.76;80.14;100875.00;5033088;28;20068;-59
2021/08/16 08:23:21;;;;;;;9.70;5.10;;;;;;;17.82;79.88;100884.81;5033863;28;20041;-58
2021/08/16 08:25:49;;;;;;;10.48;5.25;;;;;;;17.85;79.99;100883.38;5033368;28;20045;-59
2021/08/16 08:28:16;;;;;;;8.35;4.30;;;;;;;17.73;80.99;100897.69;5033628;28;20052;-57
2021/08/16 08:30:45;;;;;;;9.50;3.95;;;;;;;17.65;81.66;100910.28;5032779;28;20029;-59
2021/08/16 08:33:17;;;;;;;7.78;3.35;;;;;;;17.54;82.03;100913.59;5032901;28;20049;-59
2021/08/16 08:35:46;;;;;;;4.13;2.63;;;;;;;17.44;81.84;100915.47;5033413;28;20056;-59
2021/08/16 08:38:14;;;;;;;3.63;2.20;;;;;;;17.26;81.02;100938.47;5033060;28;20047;-56
2021/08/16 08:40:42;;;;;;;5.30;2.20;;;;;;;17.20;81.28;100937.78;5032826;28;20065;-56
2021/08/16 08:43:13;;;;;;;7.32;2.17;;;;;;;17.09;81.33;100932.81;5032771;28;20068;-57
2021/08/16 08:45:42;;;;;;;3.95;1.95;;;;;;;17.11;80.93;100936.88;5033027;28;20128;-57
2021/08/16 08:48:10;;;;;;;5.43;2.83;;;;;;;17.11;80.56;100941.59;5032775;28;20128;-58
2021/08/16 08:50:39;;;;;;;5.00;2.33;;;;;;;17.11;80.18;100945.16;5033278;28;20076;-60
2021/08/16 08:53:07;;;;;;;4.55;2.28;;;;;;;17.16;80.76;100950.53;5032962;28;20462;-60
2021/08/16 08:55:34;;;;;;;8.98;2.42;;;;;;;17.27;80.68;100950.31;5033462;28;20041;-60
2021/08/16 08:58:21;;;;;;;5.38;2.10;;;;;;;17.37;80.40;100953.66;5033111;28;20038;-60
2021/08/16 09:00:49;;;;;;;5.18;2.42;;;;;;;17.46;79.63;100954.56;5032069;28;20431;-59
2021/08/16 09:03:17;;;;;;;5.05;2.70;;;;;;;17.51;79.21;100959.13;5032394;28;20068;-60
2021/08/16 09:05:53;;;;;;;7.07;2.72;;;;;;;17.52;79.69;100962.69;5032512;28;20045;-58
2021/08/16 09:08:39;;;;;;;;;;;;;;;17.55;79.50;100962.06;5033159;28;20067;-59
2021/08/16 09:11:10;;;;;;;9.90;3.20;;;;;;;17.54;79.09;100965.97;5032617;28;19921;-59
2021/08/16 09:13:49;;;;;;;7.60;3.03;;;;;;;17.55;79.00;100970.31;5034237;28;20034;-58
2021/08/16 09:16:17;;;;;;;7.63;3.00;;;;;;;17.44;78.68;100961.50;5042834;28;20503;-60
2021/08/16 09:18:45;;;;;;;11.15;3.72;;;;;;;17.43;78.63;100963.41;5046544;28;20074;-58
2021/08/16 09:21:14;;;;;;;7.63;3.17;;;;;;;17.46;79.01;100965.56;5032463;28;20049;-59
2021/08/16 09:23:48;;;;;;;9.32;3.20;;;;;;;17.52;78.92;100971.75;5032750;28;20061;-58
2021/08/16 09:26:22;;;;;;;11.95;4.03;;;;;;;17.56;79.06;100974.72;5032328;28;20104;-56
2021/08/16 09:29:14;;;;;;;13.48;4.10;;;;;;;17.57;78.94;100973.59;5032174;28;20451;-58
2021/08/16 09:31:53;;;;;;;8.85;3.30;;;;;;;17.60;78.46;100975.72;5031367;28;20052;-59
2021/08/16 09:34:48;;;;;;;10.23;3.70;;;;;;;17.65;78.39;100970.06;5032216;28;20087;-59
2021/08/16 09:37:19;;;;;;;10.45;3.38;;;;;;;17.75;77.90;100972.63;5031222;28;20056;-55
2021/08/16 09:39:57;;;;;;;13.35;4.25;;;;;;;17.71;76.55;100973.53;5032085;28;20053;-57
2021/08/16 09:42:25;;;;;;;11.15;4.60;;;;;;;17.59;75.38;100979.59;5032174;28;20491;-59
2021/08/16 09:44:54;;;;;;;12.82;4.93;;;;;;;17.56;75.56;100980.25;5033695;28;20055;-59
2021/08/16 09:47:21;;;;;;;12.20;4.10;;;;;;;17.57;76.07;100979.09;5031595;28;20033;-57
2021/08/16 09:49:57;;;;;;;7.03;3.55;;;;;;;17.60;76.36;100981.22;5039310;28;20041;-60
2021/08/16 09:52:31;;;;;;;9.93;3.70;;;;;;;17.60;76.11;100978.47;5044179;28;20458;-58
2021/08/16 09:54:59;;;;;;;14.48;4.18;;;;;;;17.59;75.98;100993.38;5045155;28;20041;-57
2021/08/16 09:57:32;;;;;;;10.48;4.03;;;;;;;17.57;75.51;100993.69;5040540;28;20049;-56
2021/08/16 10:00:01;;;;;;;9.80;3.75;;;;;;;17.55;75.35;101000.63;5045331;28;20045;-60
2021/08/16 10:02:29;;;;;;;9.48;4.32;;;;;;;17.49;75.59;101001.91;5037906;28;20045;-60
2021/08/16 10:04:58;;;;;;;14.93;5.28;;;;;;;17.44;74.95;101003.63;5050291;28;20051;-58
2021/08/16 10:07:35;;;;;;;13.82;5.10;;;;;;;17.40;74.86;101007.31;5050109;28;20045;-57
2021/08/16 10:10:04;;;;;;;13.05;4.68;;;;;;;17.36;75.10;101009.84;5049856;28;20587;-57
2021/08/16 10:12:32;;;;;;;16.60;5.20;;;;;;;17.33;74.93;101009.66;5049871;28;20099;-59
2021/08/16 10:15:02;;;;;;;12.02;4.30;;;;;;;17.36;75.62;101014.56;5049490;28;20495;-57
2021/08/16 10:17:39;;;;;;;17.23;5.00;;;;;;;17.42;75.52;101008.63;5047034;28;20474;-57
2021/08/16 10:20:08;;;;;;;14.35;4.45;;;;;;;17.46;75.40;101009.66;5049114;28;20037;-59
2021/08/16 10:22:39;;;;;;;18.40;5.38;;;;;;;17.52;75.61;101020.53;5051043;28;20044;-57
2021/08/16 10:25:12;;;;;;;10.18;4.00;;;;;;;17.58;75.85;101022.03;5054331;28;20045;-59
2021/08/16 10:27:40;;;;;;;14.48;4.43;;;;;;;17.60;75.24;101028.06;5052644;28;20557;-57
2021/08/16 10:30:13;;;;;;;13.32;4.20;;;;;;;17.63;75.29;101024.69;5053444;28;20037;-57
2021/08/16 10:32:40;;;;;;;14.55;4.85;;;;;;;17.70;75.67;101027.00;5050806;28;20045;-56
2021/08/16 10:35:14;;;;;;;16.33;5.90;;;;;;;17.79;75.24;101034.22;5035371;28;20442;-58
2021/08/16 10:37:44;;;;;;;11.05;4.38;;;;;;;17.77;74.35;101030.97;5035624;28;20041;-57
2021/08/16 10:40:20;;;;;;;13.45;5.07;;;;;;;17.77;74.83;101028.22;5035158;28;20045;-58
2021/08/16 10:42:48;;;;;;;9.20;4.37;;;;;;;17.72;74.72;101036.59;5035314;28;20045;-58
2021/08/16 10:45:30;;;;;;;19.02;4.53;;;;;;;17.74;74.79;101048.13;5033441;28;20302;-56
2021/08/16 10:48:06;;;;;;;12.75;5.25;;;;;;;17.64;73.54;101056.63;5035549;28;20141;-54
2021/08/16 10:50:35;;;;;;;11.98;4.90;;;;;;;17.59;73.19;101051.25;5035238;28;20045;-56
2021/08/16 10:53:10;;;;;;;11.52;4.65;;;;;;;17.59;73.11;101056.75;5035580;28;20045;-60
2021/08/16 10:55:40;;;;;;;12.55;6.20;;;;;;;17.64;73.31;101053.88;5035495;28;20095;-54
2021/08/16 10:58:09;;;;;;;13.10;5.50;;;;;;;17.65;72.59;101052.75;5047293;28;20559;-56
2021/08/16 11:00:41;;;;;;;14.77;5.45;;;;;;;17.69;72.12;101048.25;5048209;28;20053;-53
2021/08/16 11:03:09;;;;;;;14.18;5.22;;;;;;;17.71;70.64;101051.50;5035387;28;20068;-58
2021/08/16 11:05:40;;;;;;;13.60;5.85;;;;;;;17.74;70.95;101053.66;5035003;28;20045;-57
2021/08/16 11:08:09;;;;;;;15.50;6.70;;;;;;;17.76;68.70;101048.63;5035346;28;20050;-58
2021/08/16 11:10:49;;;;;;;16.88;6.57;;;;;;;17.79;68.26;101056.28;5034360;28;20428;-59
2021/08/16 11:13:21;;;;;;;14.57;6.25;;;;;;;17.77;67.79;101058.53;5034808;28;20041;-56
2021/08/16 11:15:50;;;;;;;15.90;7.05;;;;;;;17.79;68.24;101061.78;5034659;28;20033;-58
2021/08/16 11:18:20;;;;;;;15.00;6.78;;;;;;;17.79;67.36;101077.53;5034988;28;20041;-57
2021/08/16 11:20:57;;;;;;;17.60;7.72;;;;;;;17.66;67.38;101080.00;5034443;28;20041;-57
2021/08/16 11:23:25;;;;;;;17.52;8.38;;;;;;;17.54;68.07;101085.22;5035062;28;20051;-57
2021/08/16 11:25:54;;;;;;;19.00;8.75;;;;;;;17.45;69.61;101100.84;5034625;28;20034;-56
2021/08/16 11:28:24;;;;;;;25.50;8.25;;;;;;;17.24;68.43;101103.19;5034174;28;20048;-56